Time;durP1;ratioP1;P1;durP2;ratioP2;P2;SDS_P1;SDS_P2;PMS_P1;PMS_P2;Temp;Humidity;BMP_temperature;BMP_pressure;BME280_temperature;BME280_humidity;BME280_pressure;Samples;Min_cycle;Max_cycle;Signal;HPM_P1;HPM_P2
2023/01/23 00:02:00;;;;;;;12.67;8.90;;;;;;;;;;5018374;28;20188;-77
2023/01/23 00:04:26;;;;;;;10.50;7.60;;;;;;;;;;5013146;28;20198;-73
2023/01/23 00:06:54;;;;;;;10.10;7.47;;;;;;;;;;5014358;28;20247;-75
2023/01/23 00:09:20;;;;;;;9.70;7.57;;;;;;;;;;5017077;28;20195;-72
2023/01/23 00:11:46;;;;;;;11.70;8.03;;;;;;;;;;5016256;28;20193;-73
2023/01/23 00:14:12;;;;;;;9.40;7.47;;;;;;;;;;5014738;28;20297;-73
2023/01/23 00:16:38;;;;;;;10.40;7.40;;;;;;;;;;5016064;28;20201;-74
2023/01/23 00:19:04;;;;;;;10.03;7.57;;;;;;;;;;5017978;28;20565;-73
2023/01/23 00:21:31;;;;;;;9.87;7.67;;;;;;;;;;5018015;28;20772;-73
2023/01/23 00:23:58;;;;;;;10.70;7.50;;;;;;;;;;5019438;28;20571;-73
2023/01/23 00:26:25;;;;;;;11.07;7.90;;;;;;;;;;5015783;28;20702;-73
2023/01/23 00:28:51;;;;;;;11.00;8.13;;;;;;;;;;5020151;28;20558;-72
2023/01/23 00:31:20;;;;;;;19.57;12.07;;;;;;;;;;5013645;28;20256;-71
2023/01/23 00:33:52;;;;;;;16.07;9.67;;;;;;;;;;5018797;28;20203;-72
2023/01/23 00:36:18;;;;;;;11.07;8.03;;;;;;;;;;5014797;28;20194;-72
2023/01/23 00:38:45;;;;;;;10.43;7.70;;;;;;;;;;5016546;28;20213;-73
2023/01/23 00:41:14;;;;;;;9.70;7.10;;;;;;;;;;5015430;28;20225;-73
2023/01/23 00:43:40;;;;;;;10.83;7.57;;;;;;;;;;5018046;28;20280;-73
2023/01/23 00:46:07;;;;;;;10.47;7.70;;;;;;;;;;5015192;28;20215;-72
2023/01/23 00:48:33;;;;;;;12.70;9.37;;;;;;;;;;5013507;28;20325;-72
2023/01/23 00:50:59;;;;;;;11.47;8.57;;;;;;;;;;5017234;28;20510;-72
2023/01/23 00:53:27;;;;;;;12.23;8.83;;;;;;;;;;5029465;28;20269;-72
2023/01/23 00:55:54;;;;;;;11.33;8.50;;;;;;;;;;5014430;28;20179;-72
2023/01/23 00:58:20;;;;;;;11.23;8.30;;;;;;;;;;5017460;28;20198;-71
2023/01/23 01:00:46;;;;;;;10.73;8.00;;;;;;;;;;5013665;28;20183;-72
2023/01/23 01:03:12;;;;;;;10.13;7.80;;;;;;;;;;5016380;28;20187;-71
2023/01/23 01:05:41;;;;;;;9.13;7.17;;;;;;;;;;5013119;28;20575;-72
2023/01/23 01:08:07;;;;;;;9.57;7.50;;;;;;;;;;5017667;28;20674;-71
2023/01/23 01:10:34;;;;;;;10.50;7.80;;;;;;;;;;5014725;28;20179;-72
2023/01/23 01:13:01;;;;;;;9.73;7.23;;;;;;;;;;5017285;28;20248;-72
2023/01/23 01:15:27;;;;;;;9.30;7.00;;;;;;;;;;5021851;28;20352;-73
2023/01/23 01:17:55;;;;;;;9.30;7.10;;;;;;;;;;5016597;28;20560;-73
2023/01/23 01:20:24;;;;;;;8.90;6.87;;;;;;;;;;5002640;28;20190;-73
2023/01/23 01:22:51;;;;;;;11.33;8.33;;;;;;;;;;5018395;28;20182;-72
2023/01/23 01:25:17;;;;;;;10.43;7.63;;;;;;;;;;5017310;28;20272;-72
2023/01/23 01:27:44;;;;;;;10.67;7.60;;;;;;;;;;5016907;28;20175;-73
2023/01/23 01:30:10;;;;;;;9.93;7.50;;;;;;;;;;5016725;28;20195;-72
2023/01/23 01:32:37;;;;;;;10.10;6.90;;;;;;;;;;5017326;28;20191;-73
2023/01/23 01:35:05;;;;;;;10.40;7.20;;;;;;;;;;5018777;28;20325;-73
2023/01/23 01:37:35;;;;;;;8.93;6.97;;;;;;;;;;5002045;28;20187;-73
2023/01/23 01:40:01;;;;;;;10.40;7.47;;;;;;;;;;5019363;28;20193;-73
2023/01/23 01:42:27;;;;;;;9.80;7.30;;;;;;;;;;5017707;28;20563;-72
2023/01/23 01:44:55;;;;;;;9.23;7.47;;;;;;;;;;5016886;28;20206;-72
2023/01/23 01:47:22;;;;;;;8.53;6.43;;;;;;;;;;5016266;28;20217;-72
2023/01/23 01:49:50;;;;;;;8.93;7.10;;;;;;;;;;5020875;28;20188;-72
2023/01/23 01:52:17;;;;;;;8.43;6.57;;;;;;;;;;5017057;28;20276;-70
2023/01/23 01:54:45;;;;;;;7.60;5.90;;;;;;;;;;5016756;28;20729;-73
2023/01/23 01:57:26;;;;;;;9.73;6.73;;;;;;;;;;5018564;28;20290;-72
2023/01/23 01:59:54;;;;;;;9.13;6.70;;;;;;;;;;5022129;28;20917;-72
2023/01/23 02:02:27;;;;;;;10.13;6.97;;;;;;;;;;5021027;28;20195;-72
2023/01/23 02:04:58;;;;;;;8.83;6.50;;;;;;;;;;4999449;28;20213;-72
2023/01/23 02:07:38;;;;;;;8.27;6.47;;;;;;;;;;5019432;28;20207;-72
2023/01/23 02:10:05;;;;;;;8.77;6.80;;;;;;;;;;5018746;28;20228;-72
2023/01/23 02:12:37;;;;;;;9.73;7.20;;;;;;;;;;5017072;28;20240;-71
2023/01/23 02:15:04;;;;;;;8.53;6.50;;;;;;;;;;5014357;28;20768;-71
2023/01/23 02:17:31;;;;;;;9.17;6.87;;;;;;;;;;5014489;28;20210;-73
2023/01/23 02:20:02;;;;;;;9.13;6.70;;;;;;;;;;5000191;28;20237;-71
2023/01/23 02:22:38;;;;;;;10.00;7.20;;;;;;;;;;5018367;28;20179;-71
2023/01/23 02:25:13;;;;;;;9.27;7.47;;;;;;;;;;5016780;28;20576;-71
2023/01/23 02:27:40;;;;;;;10.23;7.40;;;;;;;;;;5015835;28;20911;-73
2023/01/23 02:30:12;;;;;;;10.97;8.23;;;;;;;;;;5012147;28;20201;-72
2023/01/23 02:32:40;;;;;;;10.60;7.83;;;;;;;;;;5014283;28;20191;-73
2023/01/23 02:35:14;;;;;;;10.03;7.73;;;;;;;;;;5016919;28;20214;-72
2023/01/23 02:37:43;;;;;;;10.93;8.00;;;;;;;;;;5017086;28;20178;-72
2023/01/23 02:40:10;;;;;;;10.87;7.87;;;;;;;;;;5017521;28;20183;-71
2023/01/23 02:42:39;;;;;;;11.87;8.30;;;;;;;;;;5035285;28;20282;-72
2023/01/23 02:45:07;;;;;;;12.47;8.70;;;;;;;;;;5013769;28;20259;-72
2023/01/23 02:47:34;;;;;;;10.77;7.90;;;;;;;;;;5014331;28;20625;-72
2023/01/23 02:50:00;;;;;;;12.53;9.50;;;;;;;;;;5001907;28;20211;-72
2023/01/23 02:52:26;;;;;;;13.70;9.80;;;;;;;;;;5013453;28;20728;-71
2023/01/23 02:54:53;;;;;;;12.40;9.43;;;;;;;;;;5018820;28;20780;-72
2023/01/23 02:57:19;;;;;;;13.07;8.90;;;;;;;;;;5019005;28;20218;-72
2023/01/23 03:02:33;;;;;;;13.83;9.77;;;;;;;;;;5030630;28;20216;-71
2023/01/23 03:04:59;;;;;;;12.97;9.23;;;;;;;;;;5018987;28;20252;-71
2023/01/23 03:07:27;;;;;;;13.40;9.73;;;;;;;;;;5015429;28;20249;-72
2023/01/23 03:09:53;;;;;;;12.13;8.83;;;;;;;;;;5017975;28;20184;-72
2023/01/23 03:12:19;;;;;;;12.97;9.00;;;;;;;;;;5018434;28;20728;-72
2023/01/23 03:14:47;;;;;;;13.90;9.53;;;;;;;;;;5020193;28;20209;-73
2023/01/23 03:17:14;;;;;;;13.37;9.60;;;;;;;;;;5013668;28;20205;-72
2023/01/23 03:19:41;;;;;;;13.97;9.40;;;;;;;;;;5018078;28;20186;-71
2023/01/23 03:22:07;;;;;;;13.10;8.97;;;;;;;;;;5015229;28;20229;-71
2023/01/23 03:24:34;;;;;;;13.87;9.87;;;;;;;;;;5016200;28;20203;-71
2023/01/23 03:27:01;;;;;;;12.60;9.10;;;;;;;;;;5018002;28;20881;-72
2023/01/23 03:32:15;;;;;;;14.03;9.93;;;;;;;;;;4996439;28;20191;-72
2023/01/23 03:34:43;;;;;;;12.77;9.33;;;;;;;;;;5017897;28;20277;-72
2023/01/23 03:37:10;;;;;;;13.03;9.40;;;;;;;;;;4998797;28;20263;-72
2023/01/23 03:42:22;;;;;;;14.53;10.17;;;;;;;;;;5013733;28;20254;-73
2023/01/23 03:44:51;;;;;;;12.90;9.40;;;;;;;;;;5012337;28;20217;-71
2023/01/23 03:47:20;;;;;;;13.70;9.70;;;;;;;;;;4998509;28;20237;-72
2023/01/23 03:49:46;;;;;;;15.23;10.37;;;;;;;;;;5026836;28;20179;-71
2023/01/23 03:52:13;;;;;;;15.07;10.27;;;;;;;;;;5024881;28;20225;-72
2023/01/23 03:54:41;;;;;;;13.63;9.70;;;;;;;;;;5008903;28;21087;-72
2023/01/23 03:57:08;;;;;;;14.73;10.20;;;;;;;;;;5011619;28;20203;-73
2023/01/23 03:59:47;;;;;;;15.77;10.77;;;;;;;;;;5011919;28;20266;-71
2023/01/23 04:02:15;;;;;;;15.87;10.50;;;;;;;;;;5012370;28;20191;-71
2023/01/23 04:04:41;;;;;;;14.27;9.93;;;;;;;;;;5013330;28;20217;-71
2023/01/23 04:07:08;;;;;;;14.90;10.33;;;;;;;;;;5011192;28;20946;-70
2023/01/23 04:09:36;;;;;;;13.43;9.53;;;;;;;;;;5034199;28;20256;-72
2023/01/23 04:12:03;;;;;;;16.30;10.80;;;;;;;;;;5030334;28;20182;-72
2023/01/23 04:14:36;;;;;;;13.43;9.10;;;;;;;;;;5011058;28;20245;-72
2023/01/23 04:17:03;;;;;;;13.93;9.57;;;;;;;;;;5011493;28;20190;-72
2023/01/23 04:19:30;;;;;;;16.30;10.77;;;;;;;;;;5012139;28;20190;-72
2023/01/23 04:21:56;;;;;;;13.93;9.50;;;;;;;;;;5012437;28;20190;-72
2023/01/23 04:24:22;;;;;;;14.50;9.37;;;;;;;;;;5010613;28;20215;-72
2023/01/23 04:26:49;;;;;;;14.70;9.83;;;;;;;;;;5012189;28;20210;-73
2023/01/23 04:29:16;;;;;;;14.53;10.17;;;;;;;;;;5010263;28;20217;-71
2023/01/23 04:31:42;;;;;;;15.57;10.70;;;;;;;;;;5011731;28;20688;-71
2023/01/23 04:34:09;;;;;;;14.03;10.10;;;;;;;;;;5009700;28;20289;-72
2023/01/23 04:36:35;;;;;;;13.27;9.33;;;;;;;;;;5010339;28;20592;-71
2023/01/23 04:39:02;;;;;;;13.93;9.60;;;;;;;;;;5012388;28;20202;-72
2023/01/23 04:41:30;;;;;;;14.47;10.17;;;;;;;;;;5010690;28;20190;-71
2023/01/23 04:44:40;;;;;;;14.80;10.50;;;;;;;;;;5028303;28;20210;-72
2023/01/23 04:47:32;;;;;;;13.83;10.17;;;;;;;;;;4966639;28;20198;-71
2023/01/23 04:50:00;;;;;;;13.90;9.50;;;;;;;;;;5014183;28;20752;-73
2023/01/23 04:52:29;;;;;;;13.33;9.27;;;;;;;;;;4998630;28;20187;-73
2023/01/23 04:54:57;;;;;;;14.40;9.77;;;;;;;;;;5017335;28;20293;-71
2023/01/23 04:57:23;;;;;;;14.20;9.33;;;;;;;;;;5015221;28;20269;-72
2023/01/23 04:59:55;;;;;;;13.30;9.77;;;;;;;;;;5014020;28;20294;-72
2023/01/23 05:02:22;;;;;;;13.80;9.43;;;;;;;;;;5014386;28;20184;-72
2023/01/23 05:04:48;;;;;;;11.63;8.70;;;;;;;;;;5029520;28;20682;-72
2023/01/23 05:07:14;;;;;;;13.07;9.30;;;;;;;;;;5013235;28;20214;-72
2023/01/23 05:09:50;;;;;;;14.13;9.27;;;;;;;;;;5016467;28;20198;-72
2023/01/23 05:12:16;;;;;;;12.37;8.90;;;;;;;;;;5015427;28;20278;-72
2023/01/23 05:14:42;;;;;;;14.97;10.17;;;;;;;;;;5015680;28;20608;-72
2023/01/23 05:17:09;;;;;;;15.10;9.77;;;;;;;;;;5015999;28;20190;-71
2023/01/23 05:19:40;;;;;;;14.07;9.43;;;;;;;;;;5016374;28;20374;-71
2023/01/23 05:22:07;;;;;;;14.35;10.80;;;;;;;;;;5013982;28;20550;-73
2023/01/23 05:24:33;;;;;;;14.07;9.30;;;;;;;;;;5015578;28;22417;-72
2023/01/23 05:27:00;;;;;;;11.77;8.67;;;;;;;;;;5015527;28;21594;-72
2023/01/23 05:29:29;;;;;;;12.27;8.63;;;;;;;;;;5012919;28;20191;-72
2023/01/23 05:32:01;;;;;;;12.10;8.57;;;;;;;;;;5011980;28;20229;-71
2023/01/23 05:34:36;;;;;;;13.13;9.23;;;;;;;;;;5015991;28;20202;-72
2023/01/23 05:37:04;;;;;;;12.17;9.20;;;;;;;;;;5013658;28;20203;-72
2023/01/23 05:39:34;;;;;;;12.23;8.50;;;;;;;;;;5015363;28;20214;-72
2023/01/23 05:42:00;;;;;;;11.70;8.40;;;;;;;;;;5014414;28;20209;-70
2023/01/23 05:44:40;;;;;;;11.40;8.13;;;;;;;;;;4996842;28;20356;-72
2023/01/23 05:47:13;;;;;;;12.97;8.77;;;;;;;;;;5015274;28;20408;-72
2023/01/23 05:49:39;;;;;;;13.00;9.17;;;;;;;;;;5015526;28;20191;-72
2023/01/23 05:52:06;;;;;;;12.63;8.97;;;;;;;;;;5001378;28;20185;-73
2023/01/23 05:54:32;;;;;;;14.40;11.10;;;;;;;;;;5013875;28;20520;-72
2023/01/23 05:56:59;;;;;;;13.53;10.03;;;;;;;;;;5015108;28;20187;-71
2023/01/23 05:59:44;;;;;;;13.85;11.23;;;;;;;;;;5013215;28;20418;-72
2023/01/23 06:02:36;;;;;;;13.53;10.17;;;;;;;;;;5010815;28;20203;-71
2023/01/23 06:05:23;;;;;;;14.07;9.83;;;;;;;;;;5016516;28;20229;-72
2023/01/23 06:08:09;;;;;;;13.65;10.95;;;;;;;;;;5015828;28;20434;-72
2023/01/23 06:10:38;;;;;;;13.20;9.17;;;;;;;;;;5033265;28;20180;-71
2023/01/23 06:13:04;;;;;;;12.20;8.50;;;;;;;;;;5015750;28;20190;-74
2023/01/23 06:15:30;;;;;;;12.13;9.50;;;;;;;;;;5015300;28;20214;-74
2023/01/23 06:17:59;;;;;;;12.48;10.10;;;;;;;;;;5013635;28;20428;-75
2023/01/23 06:20:26;;;;;;;12.07;9.00;;;;;;;;;;5014420;28;20187;-80
2023/01/23 06:22:52;;;;;;;12.53;9.07;;;;;;;;;;5017939;28;20179;-78
2023/01/23 06:25:20;;;;;;;11.77;8.73;;;;;;;;;;5002327;28;20206;-77
2023/01/23 06:27:47;;;;;;;11.03;8.30;;;;;;;;;;4996945;28;20182;-75
2023/01/23 06:30:13;;;;;;;12.73;9.23;;;;;;;;;;5013701;28;20665;-77
2023/01/23 06:32:42;;;;;;;11.50;8.50;;;;;;;;;;4998168;28;20230;-73
2023/01/23 06:35:09;;;;;;;12.33;8.90;;;;;;;;;;5013937;28;20202;-71
2023/01/23 06:37:39;;;;;;;12.47;8.60;;;;;;;;;;5000061;28;20175;-73
2023/01/23 06:40:06;;;;;;;12.43;9.40;;;;;;;;;;5017225;28;20179;-73
2023/01/23 06:42:33;;;;;;;14.07;10.23;;;;;;;;;;4996430;28;20277;-73
2023/01/23 06:45:01;;;;;;;15.57;10.97;;;;;;;;;;5015413;28;20556;-73
2023/01/23 06:47:29;;;;;;;14.83;10.40;;;;;;;;;;5012384;28;20214;-72
2023/01/23 06:50:00;;;;;;;14.73;11.67;;;;;;;;;;5012903;28;21065;-74
2023/01/23 06:52:29;;;;;;;15.50;10.47;;;;;;;;;;5013278;28;20179;-73
2023/01/23 06:54:56;;;;;;;13.13;9.57;;;;;;;;;;5013474;28;20219;-73
2023/01/23 06:57:22;;;;;;;15.17;9.97;;;;;;;;;;5012074;28;20191;-85
2023/01/23 06:59:49;;;;;;;15.23;11.20;;;;;;;;;;5015601;28;20524;-74
2023/01/23 07:02:18;;;;;;;14.13;10.30;;;;;;;;;;5014768;28;20534;-73
2023/01/23 07:04:46;;;;;;;13.80;9.30;;;;;;;;;;5006092;28;20203;-74
2023/01/23 07:07:12;;;;;;;12.00;8.97;;;;;;;;;;5015777;28;20690;-74
2023/01/23 07:09:40;;;;;;;13.93;9.23;;;;;;;;;;5034892;28;20193;-74
2023/01/23 07:12:25;;;;;;;13.67;9.70;;;;;;;;;;5019598;28;20179;-74
2023/01/23 07:14:51;;;;;;;13.30;9.10;;;;;;;;;;5019308;28;20234;-74
2023/01/23 07:17:23;;;;;;;13.77;10.17;;;;;;;;;;5008731;28;20190;-74
2023/01/23 07:19:50;;;;;;;13.93;9.30;;;;;;;;;;5016549;28;20215;-74
2023/01/23 07:22:18;;;;;;;12.50;8.90;;;;;;;;;;5014474;28;20706;-74
2023/01/23 07:24:44;;;;;;;12.53;8.80;;;;;;;;;;5017810;28;20722;-74
2023/01/23 07:27:10;;;;;;;13.80;9.97;;;;;;;;;;5016654;28;20301;-74
2023/01/23 07:29:36;;;;;;;12.93;9.33;;;;;;;;;;5021239;28;20253;-74
2023/01/23 07:32:02;;;;;;;12.73;9.07;;;;;;;;;;5023851;28;20182;-73
2023/01/23 07:34:28;;;;;;;13.10;9.40;;;;;;;;;;5017631;28;20199;-74
2023/01/23 07:36:54;;;;;;;14.33;9.77;;;;;;;;;;5015693;28;20249;-73
2023/01/23 07:39:21;;;;;;;11.93;8.63;;;;;;;;;;5015957;28;20344;-73
2023/01/23 07:41:47;;;;;;;13.97;8.83;;;;;;;;;;5014948;28;20245;-74
2023/01/23 07:44:18;;;;;;;12.90;9.23;;;;;;;;;;5018502;28;20210;-73
2023/01/23 07:46:45;;;;;;;13.70;9.50;;;;;;;;;;5019675;28;20206;-73
2023/01/23 07:49:11;;;;;;;13.40;9.63;;;;;;;;;;5021949;28;20190;-74
2023/01/23 07:51:37;;;;;;;12.37;9.17;;;;;;;;;;5018622;28;20235;-74
2023/01/23 07:54:04;;;;;;;12.23;8.57;;;;;;;;;;5012478;28;20211;-73
2023/01/23 07:56:31;;;;;;;13.87;9.80;;;;;;;;;;5015458;28;20266;-74
2023/01/23 07:58:57;;;;;;;12.40;8.63;;;;;;;;;;5020215;28;20189;-74
2023/01/23 08:01:24;;;;;;;14.80;10.30;;;;;;;;;;5014555;28;20183;-74
2023/01/23 08:03:50;;;;;;;12.53;8.80;;;;;;;;;;5023611;28;20569;-74
2023/01/23 08:06:16;;;;;;;11.87;9.00;;;;;;;;;;5022269;28;20719;-74
2023/01/23 08:08:42;;;;;;;13.67;9.83;;;;;;;;;;5016677;28;20175;-74
2023/01/23 08:11:10;;;;;;;15.53;10.60;;;;;;;;;;5019861;28;20247;-74
2023/01/23 08:13:37;;;;;;;13.27;9.43;;;;;;;;;;5011818;28;20187;-74
2023/01/23 08:16:03;;;;;;;15.73;10.40;;;;;;;;;;5008393;28;20233;-73
2023/01/23 08:18:30;;;;;;;12.80;9.17;;;;;;;;;;5012702;28;20211;-73
2023/01/23 08:20:57;;;;;;;14.40;9.70;;;;;;;;;;5019277;28;20183;-74
2023/01/23 08:23:41;;;;;;;15.30;10.57;;;;;;;;;;5017852;28;20195;-74
2023/01/23 08:26:08;;;;;;;14.87;9.93;;;;;;;;;;5021607;28;20206;-74
2023/01/23 08:28:35;;;;;;;13.70;9.87;;;;;;;;;;5017633;28;20685;-74
2023/01/23 08:31:02;;;;;;;16.13;10.30;;;;;;;;;;5020093;28;20194;-74
2023/01/23 08:33:28;;;;;;;15.53;10.93;;;;;;;;;;5028199;28;20217;-72
2023/01/23 08:35:57;;;;;;;14.30;9.53;;;;;;;;;;5015546;28;20193;-74
2023/01/23 08:38:23;;;;;;;13.67;10.57;;;;;;;;;;5020852;28;20193;-74
2023/01/23 08:40:50;;;;;;;15.13;10.77;;;;;;;;;;5023709;28;20672;-74
2023/01/23 08:43:17;;;;;;;16.70;10.73;;;;;;;;;;5017320;28;20728;-74
2023/01/23 08:45:53;;;;;;;15.70;10.20;;;;;;;;;;5016269;28;20250;-74
2023/01/23 08:48:21;;;;;;;14.27;9.97;;;;;;;;;;5037218;28;20186;-74
2023/01/23 08:50:47;;;;;;;13.80;9.83;;;;;;;;;;5015161;28;20253;-74
2023/01/23 08:53:13;;;;;;;13.20;9.73;;;;;;;;;;5015394;28;20187;-74
2023/01/23 08:55:40;;;;;;;14.33;9.97;;;;;;;;;;5017954;28;20638;-72
2023/01/23 08:58:06;;;;;;;14.80;10.30;;;;;;;;;;5018807;28;20179;-74
2023/01/23 09:00:33;;;;;;;14.23;10.03;;;;;;;;;;5017890;28;20265;-74
2023/01/23 09:03:00;;;;;;;14.47;10.13;;;;;;;;;;5020095;28;20719;-73
2023/01/23 09:05:26;;;;;;;12.97;8.70;;;;;;;;;;5017347;28;20214;-74
2023/01/23 09:07:52;;;;;;;12.80;9.70;;;;;;;;;;5019629;28;20222;-73
2023/01/23 09:10:18;;;;;;;11.23;8.63;;;;;;;;;;5019094;28;20209;-74
2023/01/23 09:12:44;;;;;;;11.80;8.33;;;;;;;;;;5019999;28;20269;-73
2023/01/23 09:15:11;;;;;;;11.23;8.33;;;;;;;;;;5018312;28;20210;-74
2023/01/23 09:17:37;;;;;;;12.83;8.97;;;;;;;;;;5014197;28;20195;-74
2023/01/23 09:20:05;;;;;;;10.17;7.50;;;;;;;;;;5011066;28;20184;-74
2023/01/23 09:22:32;;;;;;;11.67;8.23;;;;;;;;;;5018712;28;20191;-73
2023/01/23 09:24:58;;;;;;;10.43;7.67;;;;;;;;;;5016868;28;20210;-73
2023/01/23 09:27:24;;;;;;;11.17;7.87;;;;;;;;;;5016249;28;20206;-73
2023/01/23 09:29:50;;;;;;;11.10;7.77;;;;;;;;;;4999259;28;20245;-74
2023/01/23 09:32:17;;;;;;;11.30;7.83;;;;;;;;;;5013696;28;20206;-74
2023/01/23 09:34:43;;;;;;;10.27;7.37;;;;;;;;;;5015595;28;20214;-74
2023/01/23 09:37:09;;;;;;;10.77;7.67;;;;;;;;;;5023322;28;20626;-74
2023/01/23 09:39:35;;;;;;;10.07;7.17;;;;;;;;;;5024675;28;20183;-74
2023/01/23 09:42:09;;;;;;;10.40;6.70;;;;;;;;;;5021369;28;20179;-74
2023/01/23 09:44:36;;;;;;;10.13;7.20;;;;;;;;;;5018314;28;20213;-74
2023/01/23 09:47:04;;;;;;;11.33;7.23;;;;;;;;;;5012170;28;20294;-74
2023/01/23 09:49:40;;;;;;;9.03;6.63;;;;;;;;;;5002629;28;20183;-74
2023/01/23 09:52:16;;;;;;;10.27;6.97;;;;;;;;;;5022475;28;20194;-73
2023/01/23 09:54:47;;;;;;;9.27;7.43;;;;;;;;;;5018896;28;20221;-74
2023/01/23 09:57:19;;;;;;;11.17;7.50;;;;;;;;;;5016586;28;20190;-74
2023/01/23 09:59:49;;;;;;;10.23;7.37;;;;;;;;;;5017256;28;20190;-76
2023/01/23 10:02:18;;;;;;;11.13;7.70;;;;;;;;;;5005854;28;20589;-74
2023/01/23 10:04:46;;;;;;;10.33;7.57;;;;;;;;;;5020897;28;20207;-73
2023/01/23 10:07:31;;;;;;;10.03;7.17;;;;;;;;;;5018613;28;20678;-81
2023/01/23 10:09:57;;;;;;;10.53;7.67;;;;;;;;;;5018261;28;20233;-74
2023/01/23 10:12:44;;;;;;;10.37;7.47;;;;;;;;;;5023063;28;20262;-74
2023/01/23 10:15:13;;;;;;;10.17;7.20;;;;;;;;;;5019997;28;20198;-75
2023/01/23 10:17:57;;;;;;;9.60;7.37;;;;;;;;;;5017533;28;20217;-74
2023/01/23 10:20:38;;;;;;;9.50;6.97;;;;;;;;;;5037610;28;20214;-72
2023/01/23 10:23:18;;;;;;;11.93;7.63;;;;;;;;;;5019607;28;20708;-74
2023/01/23 10:25:44;;;;;;;10.77;7.60;;;;;;;;;;5021665;28;20569;-78
2023/01/23 10:28:16;;;;;;;11.37;7.67;;;;;;;;;;5023777;28;20175;-72
2023/01/23 10:30:43;;;;;;;11.30;7.23;;;;;;;;;;5018846;28;20190;-72
2023/01/23 10:33:18;;;;;;;10.07;7.60;;;;;;;;;;5018639;28;20194;-74
2023/01/23 10:35:52;;;;;;;10.67;7.03;;;;;;;;;;5020881;28;20682;-75
2023/01/23 10:38:25;;;;;;;9.60;7.13;;;;;;;;;;5013941;28;20229;-75
2023/01/23 10:43:36;;;;;;;10.40;7.17;;;;;;;;;;5017236;28;20202;-73
2023/01/23 10:46:07;;;;;;;10.87;7.37;;;;;;;;;;5020102;28;20203;-72
2023/01/23 10:48:44;;;;;;;9.33;7.23;;;;;;;;;;5021390;28;20174;-72
2023/01/23 10:51:30;;;;;;;10.03;7.10;;;;;;;;;;5014234;28;20187;-72
2023/01/23 10:53:59;;;;;;;10.33;7.33;;;;;;;;;;5018304;28;20214;-73
2023/01/23 10:56:26;;;;;;;10.97;7.40;;;;;;;;;;5014073;28;20194;-72
2023/01/23 10:58:54;;;;;;;9.93;7.20;;;;;;;;;;5019734;28;20183;-72
2023/01/23 11:01:29;;;;;;;9.83;7.40;;;;;;;;;;5021333;28;20183;-73
2023/01/23 11:03:55;;;;;;;8.90;7.27;;;;;;;;;;5020939;28;20217;-73
2023/01/23 11:06:24;;;;;;;10.33;7.70;;;;;;;;;;5017245;28;20233;-72
2023/01/23 11:09:02;;;;;;;11.50;8.43;;;;;;;;;;5020036;28;20493;-73
2023/01/23 11:11:30;;;;;;;10.43;7.40;;;;;;;;;;5021415;28;20272;-73
2023/01/23 11:14:23;;;;;;;11.17;7.70;;;;;;;;;;5019080;28;20292;-72
2023/01/23 11:16:59;;;;;;;10.63;7.37;;;;;;;;;;5015503;28;20199;-72
2023/01/23 11:19:26;;;;;;;10.80;7.70;;;;;;;;;;5037261;28;20283;-73
2023/01/23 11:21:53;;;;;;;9.97;7.67;;;;;;;;;;5015064;28;20183;-71
2023/01/23 11:24:21;;;;;;;10.93;7.60;;;;;;;;;;5015487;28;20221;-72
2023/01/23 11:26:57;;;;;;;10.53;7.10;;;;;;;;;;5024136;28;20694;-73
2023/01/23 11:29:24;;;;;;;10.00;7.10;;;;;;;;;;5015820;28;20186;-72
2023/01/23 11:31:53;;;;;;;10.60;7.90;;;;;;;;;;5026728;28;20179;-73
2023/01/23 11:34:21;;;;;;;9.77;7.80;;;;;;;;;;5017073;28;20304;-73
2023/01/23 11:36:56;;;;;;;10.83;7.77;;;;;;;;;;5017877;28;20202;-73
2023/01/23 11:39:37;;;;;;;9.87;7.57;;;;;;;;;;5011976;28;20187;-72
2023/01/23 11:42:03;;;;;;;11.33;8.20;;;;;;;;;;5013412;28;20182;-72
2023/01/23 11:44:31;;;;;;;12.07;9.30;;;;;;;;;;5018070;28;20315;-73
2023/01/23 11:47:05;;;;;;;11.23;8.17;;;;;;;;;;5016696;28;20199;-73
2023/01/23 11:49:50;;;;;;;11.00;8.27;;;;;;;;;;5016084;28;20295;-73
2023/01/23 11:52:26;;;;;;;11.10;8.47;;;;;;;;;;5017149;28;20221;-72
2023/01/23 11:54:52;;;;;;;10.50;7.83;;;;;;;;;;5017427;28;20241;-73
2023/01/23 11:57:37;;;;;;;9.60;7.60;;;;;;;;;;5019436;28;20195;-73
2023/01/23 12:00:21;;;;;;;11.00;8.20;;;;;;;;;;5017413;28;20191;-71
2023/01/23 12:02:47;;;;;;;11.13;7.80;;;;;;;;;;5017879;28;20198;-73
2023/01/23 12:05:24;;;;;;;9.67;7.50;;;;;;;;;;5022551;28;20218;-73
2023/01/23 12:07:53;;;;;;;10.70;8.37;;;;;;;;;;5020561;28;20178;-73
2023/01/23 12:10:23;;;;;;;12.03;8.87;;;;;;;;;;5021813;28;20179;-77
2023/01/23 12:13:06;;;;;;;12.20;7.93;;;;;;;;;;5018752;28;20183;-73
2023/01/23 12:15:38;;;;;;;11.20;7.73;;;;;;;;;;4992287;28;20221;-78
2023/01/23 12:18:28;;;;;;;14.70;8.30;;;;;;;;;;5017371;28;20268;-72
2023/01/23 12:21:17;;;;;;;13.23;8.90;;;;;;;;;;5018694;28;20189;-73
2023/01/23 12:23:53;;;;;;;11.30;7.60;;;;;;;;;;5002600;28;20207;-73
2023/01/23 12:26:21;;;;;;;11.20;7.93;;;;;;;;;;5021924;28;20717;-74
2023/01/23 12:29:06;;;;;;;12.37;8.37;;;;;;;;;;5018830;28;20210;-73
2023/01/23 12:31:44;;;;;;;11.20;7.90;;;;;;;;;;5020302;28;20241;-73
2023/01/23 12:34:24;;;;;;;9.80;7.63;;;;;;;;;;5021374;28;20210;-71
2023/01/23 12:37:09;;;;;;;9.90;7.27;;;;;;;;;;5020057;28;20273;-73
2023/01/23 12:39:50;;;;;;;10.67;7.97;;;;;;;;;;5019252;28;20183;-72
2023/01/23 12:42:20;;;;;;;10.27;8.00;;;;;;;;;;5018408;28;20191;-70
2023/01/23 12:44:59;;;;;;;10.87;7.83;;;;;;;;;;5018402;28;20219;-73
2023/01/23 12:47:31;;;;;;;10.80;8.23;;;;;;;;;;5020729;28;20283;-73
2023/01/23 12:50:11;;;;;;;10.40;8.00;;;;;;;;;;5017407;28;20330;-73
2023/01/23 12:52:48;;;;;;;10.60;7.87;;;;;;;;;;5016068;28;20195;-72
2023/01/23 12:55:28;;;;;;;10.80;7.70;;;;;;;;;;5020894;28;20233;-72
2023/01/23 12:57:56;;;;;;;11.07;8.20;;;;;;;;;;5018243;28;20186;-72
2023/01/23 13:00:25;;;;;;;11.50;8.13;;;;;;;;;;5019677;28;20191;-71
2023/01/23 13:02:57;;;;;;;8.77;7.03;;;;;;;;;;5018743;28;20221;-72
2023/01/23 13:05:30;;;;;;;10.53;7.87;;;;;;;;;;5018001;28;20215;-72
2023/01/23 13:08:08;;;;;;;9.57;7.03;;;;;;;;;;5020572;28;20189;-72
2023/01/23 13:13:26;;;;;;;10.53;8.40;;;;;;;;;;5015043;28;20183;-72
2023/01/23 13:16:25;;;;;;;9.20;7.10;;;;;;;;;;5020850;28;20182;-73
2023/01/23 13:21:59;;;;;;;10.03;7.13;;;;;;;;;;5021600;28;20183;-72
2023/01/23 13:27:41;;;;;;;10.83;7.53;;;;;;;;;;5021003;28;20217;-72
2023/01/23 13:30:36;;;;;;;8.60;7.00;;;;;;;;;;5026077;28;20233;-73
2023/01/23 13:33:05;;;;;;;9.37;7.33;;;;;;;;;;5003154;28;20262;-72
2023/01/23 13:35:43;;;;;;;9.20;7.23;;;;;;;;;;5021267;28;20272;-73
2023/01/23 13:38:31;;;;;;;9.30;7.10;;;;;;;;;;5015552;28;20553;-73
2023/01/23 13:41:17;;;;;;;9.40;7.30;;;;;;;;;;5009941;28;20321;-73
2023/01/23 13:43:49;;;;;;;13.10;7.60;;;;;;;;;;5022599;28;20198;-73
2023/01/23 13:46:27;;;;;;;9.33;6.93;;;;;;;;;;5017861;28;20267;-73
2023/01/23 13:51:45;;;;;;;10.40;7.90;;;;;;;;;;5019149;28;20194;-73
2023/01/23 13:56:58;;;;;;;9.77;7.33;;;;;;;;;;5015690;28;20225;-73
2023/01/23 13:59:30;;;;;;;11.70;7.87;;;;;;;;;;5021068;28;20183;-73
2023/01/23 14:05:13;;;;;;;8.43;6.80;;;;;;;;;;5020989;28;20670;-73
2023/01/23 14:07:42;;;;;;;12.13;9.90;;;;;;;;;;5023126;28;20226;-73
2023/01/23 14:10:19;;;;;;;9.23;7.27;;;;;;;;;;5017071;28;20218;-73
2023/01/23 14:12:46;;;;;;;8.47;6.87;;;;;;;;;;5021146;28;20232;-72
2023/01/23 14:18:15;;;;;;;9.10;7.50;;;;;;;;;;5018367;28;20183;-72
2023/01/23 14:20:41;;;;;;;9.37;7.20;;;;;;;;;;5021193;28;20233;-72
2023/01/23 14:23:24;;;;;;;10.13;7.90;;;;;;;;;;5021449;28;20632;-72
2023/01/23 14:25:50;;;;;;;10.50;7.57;;;;;;;;;;5015604;28;20207;-72
2023/01/23 14:28:17;;;;;;;11.23;7.87;;;;;;;;;;5019885;28;20260;-73
2023/01/23 14:30:57;;;;;;;8.97;7.33;;;;;;;;;;5020031;28;20182;-73
2023/01/23 14:33:23;;;;;;;9.07;6.87;;;;;;;;;;5016237;28;20305;-73
2023/01/23 14:35:50;;;;;;;8.47;6.60;;;;;;;;;;5018494;28;20806;-73
2023/01/23 14:38:26;;;;;;;8.93;7.23;;;;;;;;;;5016124;28;20184;-73
2023/01/23 14:40:52;;;;;;;9.30;7.70;;;;;;;;;;5014378;28;20171;-73
2023/01/23 14:43:27;;;;;;;10.20;7.70;;;;;;;;;;5016295;28;20687;-72
2023/01/23 14:45:59;;;;;;;9.93;7.67;;;;;;;;;;5011698;28;20249;-73
2023/01/23 14:48:25;;;;;;;11.07;8.17;;;;;;;;;;5018314;28;20844;-73
2023/01/23 14:51:01;;;;;;;13.27;9.23;;;;;;;;;;5015727;28;20229;-73
2023/01/23 14:53:27;;;;;;;12.27;9.07;;;;;;;;;;5017650;28;20323;-73
2023/01/23 14:55:56;;;;;;;10.07;8.13;;;;;;;;;;5020679;28;20737;-73
2023/01/23 14:58:24;;;;;;;10.57;8.03;;;;;;;;;;5020433;28;20210;-73
2023/01/23 15:00:51;;;;;;;10.43;7.77;;;;;;;;;;5025972;28;20187;-73
2023/01/23 15:03:36;;;;;;;10.93;8.03;;;;;;;;;;5019635;28;20189;-73
2023/01/23 15:06:04;;;;;;;10.50;7.47;;;;;;;;;;5022714;28;20206;-73
2023/01/23 15:08:32;;;;;;;10.13;7.97;;;;;;;;;;5015494;28;20171;-77
2023/01/23 15:11:00;;;;;;;10.77;8.53;;;;;;;;;;5024698;28;20206;-73
2023/01/23 15:14:00;;;;;;;9.70;7.83;;;;;;;;;;5017463;28;20180;-81
2023/01/23 15:16:36;;;;;;;10.87;8.17;;;;;;;;;;4995460;28;20195;-73
2023/01/23 15:19:07;;;;;;;10.67;8.30;;;;;;;;;;5021300;28;20186;-72
2023/01/23 15:21:35;;;;;;;10.47;7.80;;;;;;;;;;5025114;28;20182;-72